Bosler, WY (82051)

5:17 PM MST on December 02, 2016 (GMT -0700)
Laramie Regional | | Change Station

Elev 7270 ft 41.32 °N, 105.67 °W | Updated 24 minutes ago

Mostly Cloudy
Mostly Cloudy
18 °F
Feels Like 7 °F
N
9
Wind Variable Wind from SE

Today
High -- | Low -- °F
--% Chance of Precip.
Yesterday
High -- | Low -- °F
Precip. -- in
Pressure 30.25 in
Visibility 10.0 miles
Clouds Mostly Cloudy 4100 ft
Windchill 7 °F
Dew Point 13 °F
Humidity 81%
Rainfall 0.00 in
Snow Depth Not available.
7:11 AM 4:33 PM
Waxing Crescent, 11% visible
METAR KLAR 022353Z AUTO 14008KT 10SM BKN041 M08/M11 A3007 RMK AO2 SNE18 SLP241 P0000 60000 T10781106 11044 21078 51001
Pressure 30.25 in
Visibility 10.0 miles
Clouds Mostly Cloudy 4100 ft
Windchill 7 °F
Dew Point 13 °F
Humidity 81%
Rainfall 0.00 in
Snow Depth Not available.
7:11 AM 4:33 PM
Waxing Crescent, 11% visible
METAR KLAR 022353Z AUTO 14008KT 10SM BKN041 M08/M11 A3007 RMK AO2 SNE18 SLP241 P0000 60000 T10781106 11044 21078 51001

10-Day Weather Forecast

Almanac

Astronomy

Dec. 02, 2016 Rise Set
Actual Time
Civil Twilight
Nautical Twilight
Astronomical Twilight
Moon
Length of Visible Light
Length of Day
Tomorrow will be .
, % of the Moon is Illuminated

Today's Extremes

State Highs State Lows

Community

WunderPhotos

Upload Photos

1,955,379 photos uploaded!

WunderBlog® & News

Nearby

Air Quality

  Air Quality AQ Index Pollutant
Not available.

Snow Depth

Station Depth Elevation

Earthquake Activity

City Distance Mag. Time & Date
Minimum magnitude displayed is 2.5.

Coastal Water Temperatures

Place Temperature

Stations

Nearby Weather Stations

Station Location Temp. Windchill Dew Point Humidity Wind Precip. Elev Updated Type
                   

Watches & Warnings

There are currently no watches in effect.